sensor_id;sensor_type;location;lat;lon;timestamp;P1;durP1;ratioP1;P2;durP2;ratioP2
47429;SDS011;33181;49.246;7.372;2022-10-10T00:01:20;13.00;;;8.77;;
47429;SDS011;33181;49.246;7.372;2022-10-10T00:03:48;11.40;;;8.50;;
47429;SDS011;33181;49.246;7.372;2022-10-10T00:06:14;12.13;;;8.37;;
47429;SDS011;33181;49.246;7.372;2022-10-10T00:08:41;10.97;;;7.97;;
47429;SDS011;33181;49.246;7.372;2022-10-10T00:11:08;11.40;;;7.23;;
47429;SDS011;33181;49.246;7.372;2022-10-10T00:13:35;9.90;;;7.80;;
47429;SDS011;33181;49.246;7.372;2022-10-10T00:16:01;11.03;;;7.83;;
47429;SDS011;33181;49.246;7.372;2022-10-10T00:18:28;10.80;;;7.40;;
47429;SDS011;33181;49.246;7.372;2022-10-10T00:20:54;10.30;;;7.63;;
47429;SDS011;33181;49.246;7.372;2022-10-10T00:23:20;13.03;;;8.37;;
47429;SDS011;33181;49.246;7.372;2022-10-10T00:25:46;16.87;;;8.67;;
47429;SDS011;33181;49.246;7.372;2022-10-10T00:28:12;12.43;;;9.17;;
47429;SDS011;33181;49.246;7.372;2022-10-10T00:30:38;13.70;;;8.83;;
47429;SDS011;33181;49.246;7.372;2022-10-10T00:33:04;12.20;;;8.87;;
47429;SDS011;33181;49.246;7.372;2022-10-10T00:35:30;11.10;;;7.97;;
47429;SDS011;33181;49.246;7.372;2022-10-10T00:37:56;12.63;;;8.20;;
47429;SDS011;33181;49.246;7.372;2022-10-10T00:40:22;13.27;;;8.37;;
47429;SDS011;33181;49.246;7.372;2022-10-10T00:42:49;12.83;;;8.27;;
47429;SDS011;33181;49.246;7.372;2022-10-10T00:48:05;10.57;;;7.30;;
47429;SDS011;33181;49.246;7.372;2022-10-10T00:51:11;12.60;;;7.83;;
47429;SDS011;33181;49.246;7.372;2022-10-10T00:53:44;10.93;;;7.93;;
47429;SDS011;33181;49.246;7.372;2022-10-10T00:56:13;12.17;;;7.57;;
47429;SDS011;33181;49.246;7.372;2022-10-10T00:58:44;13.40;;;7.93;;
47429;SDS011;33181;49.246;7.372;2022-10-10T01:01:14;10.20;;;7.47;;
47429;SDS011;33181;49.246;7.372;2022-10-10T01:03:40;11.93;;;7.77;;
47429;SDS011;33181;49.246;7.372;2022-10-10T01:06:06;17.10;;;7.90;;
47429;SDS011;33181;49.246;7.372;2022-10-10T01:08:33;10.70;;;7.93;;
47429;SDS011;33181;49.246;7.372;2022-10-10T01:17:06;10.73;;;7.97;;
47429;SDS011;33181;49.246;7.372;2022-10-10T01:26:16;14.23;;;8.40;;
47429;SDS011;33181;49.246;7.372;2022-10-10T01:29:08;11.37;;;7.60;;
47429;SDS011;33181;49.246;7.372;2022-10-10T01:31:44;9.97;;;7.10;;
47429;SDS011;33181;49.246;7.372;2022-10-10T01:34:33;12.77;;;7.90;;
47429;SDS011;33181;49.246;7.372;2022-10-10T01:39:59;15.70;;;7.50;;
47429;SDS011;33181;49.246;7.372;2022-10-10T01:42:50;11.03;;;7.37;;
47429;SDS011;33181;49.246;7.372;2022-10-10T01:45:19;10.90;;;8.20;;
47429;SDS011;33181;49.246;7.372;2022-10-10T01:47:47;10.03;;;7.67;;
47429;SDS011;33181;49.246;7.372;2022-10-10T01:50:17;10.17;;;7.87;;
47429;SDS011;33181;49.246;7.372;2022-10-10T01:59:00;11.37;;;7.27;;
47429;SDS011;33181;49.246;7.372;2022-10-10T02:01:52;9.90;;;7.77;;
47429;SDS011;33181;49.246;7.372;2022-10-10T02:04:43;10.70;;;7.60;;
47429;SDS011;33181;49.246;7.372;2022-10-10T02:09:50;12.70;;;7.40;;
47429;SDS011;33181;49.246;7.372;2022-10-10T02:12:17;10.13;;;7.70;;
47429;SDS011;33181;49.246;7.372;2022-10-10T02:14:46;11.27;;;8.13;;
47429;SDS011;33181;49.246;7.372;2022-10-10T02:17:17;11.87;;;8.30;;
47429;SDS011;33181;49.246;7.372;2022-10-10T02:19:51;9.40;;;7.37;;
47429;SDS011;33181;49.246;7.372;2022-10-10T02:22:21;11.40;;;8.40;;
47429;SDS011;33181;49.246;7.372;2022-10-10T02:24:49;13.10;;;8.20;;
47429;SDS011;33181;49.246;7.372;2022-10-10T02:30:02;11.93;;;7.63;;
47429;SDS011;33181;49.246;7.372;2022-10-10T02:35:28;14.93;;;9.30;;
47429;SDS011;33181;49.246;7.372;2022-10-10T02:38:07;12.17;;;8.90;;
47429;SDS011;33181;49.246;7.372;2022-10-10T02:40:36;12.33;;;9.07;;
47429;SDS011;33181;49.246;7.372;2022-10-10T02:43:05;12.63;;;9.10;;
47429;SDS011;33181;49.246;7.372;2022-10-10T02:45:32;11.23;;;8.30;;
47429;SDS011;33181;49.246;7.372;2022-10-10T02:47:59;12.67;;;8.20;;
47429;SDS011;33181;49.246;7.372;2022-10-10T02:50:26;12.30;;;8.70;;
47429;SDS011;33181;49.246;7.372;2022-10-10T02:52:54;10.43;;;8.03;;
47429;SDS011;33181;49.246;7.372;2022-10-10T02:55:20;11.90;;;7.67;;
47429;SDS011;33181;49.246;7.372;2022-10-10T02:57:46;11.23;;;7.97;;
47429;SDS011;33181;49.246;7.372;2022-10-10T03:00:12;11.73;;;7.50;;
47429;SDS011;33181;49.246;7.372;2022-10-10T03:02:38;10.43;;;7.03;;
47429;SDS011;33181;49.246;7.372;2022-10-10T03:05:05;11.93;;;7.13;;
47429;SDS011;33181;49.246;7.372;2022-10-10T03:07:32;10.53;;;7.47;;
47429;SDS011;33181;49.246;7.372;2022-10-10T03:09:58;8.57;;;6.30;;
47429;SDS011;33181;49.246;7.372;2022-10-10T03:12:24;9.77;;;7.30;;
47429;SDS011;33181;49.246;7.372;2022-10-10T03:14:50;8.70;;;7.13;;
47429;SDS011;33181;49.246;7.372;2022-10-10T03:17:15;11.00;;;6.80;;
47429;SDS011;33181;49.246;7.372;2022-10-10T03:19:41;14.63;;;7.90;;
47429;SDS011;33181;49.246;7.372;2022-10-10T03:22:07;10.80;;;7.70;;
47429;SDS011;33181;49.246;7.372;2022-10-10T03:24:33;9.87;;;7.03;;
47429;SDS011;33181;49.246;7.372;2022-10-10T03:26:59;11.20;;;6.97;;
47429;SDS011;33181;49.246;7.372;2022-10-10T03:29:24;9.43;;;7.60;;
47429;SDS011;33181;49.246;7.372;2022-10-10T03:31:50;13.80;;;7.20;;
47429;SDS011;33181;49.246;7.372;2022-10-10T03:34:16;11.80;;;7.27;;
47429;SDS011;33181;49.246;7.372;2022-10-10T03:36:42;10.90;;;7.47;;
47429;SDS011;33181;49.246;7.372;2022-10-10T03:39:07;9.63;;;7.60;;
47429;SDS011;33181;49.246;7.372;2022-10-10T03:41:33;11.23;;;7.10;;
47429;SDS011;33181;49.246;7.372;2022-10-10T03:44:00;11.30;;;7.10;;
47429;SDS011;33181;49.246;7.372;2022-10-10T03:46:26;10.97;;;7.50;;
47429;SDS011;33181;49.246;7.372;2022-10-10T03:48:52;9.50;;;7.10;;
47429;SDS011;33181;49.246;7.372;2022-10-10T03:51:18;9.80;;;7.33;;
47429;SDS011;33181;49.246;7.372;2022-10-10T03:53:44;9.90;;;7.13;;
47429;SDS011;33181;49.246;7.372;2022-10-10T03:56:09;10.20;;;7.27;;
47429;SDS011;33181;49.246;7.372;2022-10-10T03:58:35;10.60;;;7.50;;
47429;SDS011;33181;49.246;7.372;2022-10-10T04:01:01;14.17;;;8.10;;
47429;SDS011;33181;49.246;7.372;2022-10-10T04:03:28;10.00;;;7.83;;
47429;SDS011;33181;49.246;7.372;2022-10-10T04:05:55;11.33;;;7.80;;
47429;SDS011;33181;49.246;7.372;2022-10-10T04:08:21;14.17;;;8.93;;
47429;SDS011;33181;49.246;7.372;2022-10-10T04:10:51;12.63;;;8.70;;
47429;SDS011;33181;49.246;7.372;2022-10-10T04:13:19;13.50;;;8.50;;
47429;SDS011;33181;49.246;7.372;2022-10-10T04:15:49;13.50;;;9.33;;
47429;SDS011;33181;49.246;7.372;2022-10-10T04:18:16;12.60;;;9.10;;
47429;SDS011;33181;49.246;7.372;2022-10-10T04:20:43;14.37;;;9.37;;
47429;SDS011;33181;49.246;7.372;2022-10-10T04:23:08;11.47;;;8.30;;
47429;SDS011;33181;49.246;7.372;2022-10-10T04:25:34;11.10;;;8.37;;
47429;SDS011;33181;49.246;7.372;2022-10-10T04:28:00;11.77;;;7.93;;
47429;SDS011;33181;49.246;7.372;2022-10-10T04:30:26;18.30;;;9.10;;
47429;SDS011;33181;49.246;7.372;2022-10-10T04:32:58;11.70;;;8.00;;
47429;SDS011;33181;49.246;7.372;2022-10-10T04:35:24;9.00;;;7.03;;
47429;SDS011;33181;49.246;7.372;2022-10-10T04:37:50;14.40;;;7.57;;
47429;SDS011;33181;49.246;7.372;2022-10-10T04:40:16;11.40;;;7.60;;
47429;SDS011;33181;49.246;7.372;2022-10-10T04:42:42;12.40;;;8.20;;
47429;SDS011;33181;49.246;7.372;2022-10-10T04:45:07;10.23;;;8.10;;
47429;SDS011;33181;49.246;7.372;2022-10-10T04:47:34;9.13;;;7.57;;
47429;SDS011;33181;49.246;7.372;2022-10-10T04:49:59;9.50;;;7.57;;
47429;SDS011;33181;49.246;7.372;2022-10-10T04:52:25;17.30;;;10.10;;
47429;SDS011;33181;49.246;7.372;2022-10-10T04:54:51;13.20;;;8.57;;
47429;SDS011;33181;49.246;7.372;2022-10-10T04:57:17;14.03;;;9.87;;
47429;SDS011;33181;49.246;7.372;2022-10-10T04:59:42;14.70;;;9.77;;
47429;SDS011;33181;49.246;7.372;2022-10-10T05:02:09;15.83;;;9.30;;
47429;SDS011;33181;49.246;7.372;2022-10-10T05:04:34;16.60;;;10.47;;
47429;SDS011;33181;49.246;7.372;2022-10-10T05:07:00;14.30;;;9.40;;
47429;SDS011;33181;49.246;7.372;2022-10-10T05:09:26;14.40;;;8.63;;
47429;SDS011;33181;49.246;7.372;2022-10-10T05:11:52;13.37;;;8.67;;
47429;SDS011;33181;49.246;7.372;2022-10-10T05:14:17;13.60;;;9.10;;
47429;SDS011;33181;49.246;7.372;2022-10-10T05:16:43;10.80;;;8.20;;
47429;SDS011;33181;49.246;7.372;2022-10-10T05:19:09;12.03;;;7.93;;
47429;SDS011;33181;49.246;7.372;2022-10-10T05:21:35;11.03;;;7.80;;
47429;SDS011;33181;49.246;7.372;2022-10-10T05:24:01;9.33;;;7.07;;
47429;SDS011;33181;49.246;7.372;2022-10-10T05:26:27;9.60;;;6.97;;
47429;SDS011;33181;49.246;7.372;2022-10-10T05:28:53;9.03;;;7.00;;
47429;SDS011;33181;49.246;7.372;2022-10-10T05:31:19;10.80;;;7.40;;
47429;SDS011;33181;49.246;7.372;2022-10-10T05:33:45;9.60;;;7.50;;
47429;SDS011;33181;49.246;7.372;2022-10-10T05:36:12;13.53;;;7.27;;
47429;SDS011;33181;49.246;7.372;2022-10-10T05:38:39;12.27;;;8.27;;
47429;SDS011;33181;49.246;7.372;2022-10-10T05:41:06;10.10;;;7.60;;
47429;SDS011;33181;49.246;7.372;2022-10-10T05:43:32;13.43;;;7.60;;
47429;SDS011;33181;49.246;7.372;2022-10-10T05:45:59;10.50;;;8.07;;
47429;SDS011;33181;49.246;7.372;2022-10-10T05:48:25;12.40;;;7.70;;
47429;SDS011;33181;49.246;7.372;2022-10-10T05:50:53;10.63;;;7.40;;
47429;SDS011;33181;49.246;7.372;2022-10-10T05:53:21;11.30;;;8.27;;
47429;SDS011;33181;49.246;7.372;2022-10-10T05:55:48;10.23;;;8.47;;
47429;SDS011;33181;49.246;7.372;2022-10-10T05:58:14;14.17;;;8.50;;
47429;SDS011;33181;49.246;7.372;2022-10-10T06:00:41;12.10;;;8.07;;
47429;SDS011;33181;49.246;7.372;2022-10-10T06:03:09;11.30;;;7.73;;
47429;SDS011;33181;49.246;7.372;2022-10-10T06:05:40;11.93;;;8.47;;
47429;SDS011;33181;49.246;7.372;2022-10-10T06:08:08;9.93;;;7.70;;
47429;SDS011;33181;49.246;7.372;2022-10-10T06:10:38;16.37;;;10.20;;
47429;SDS011;33181;49.246;7.372;2022-10-10T06:13:06;10.53;;;8.33;;
47429;SDS011;33181;49.246;7.372;2022-10-10T06:15:33;12.00;;;8.27;;
47429;SDS011;33181;49.246;7.372;2022-10-10T06:17:59;14.43;;;9.30;;
47429;SDS011;33181;49.246;7.372;2022-10-10T06:20:24;13.27;;;8.40;;
47429;SDS011;33181;49.246;7.372;2022-10-10T06:22:50;12.50;;;8.77;;
47429;SDS011;33181;49.246;7.372;2022-10-10T06:25:16;14.67;;;8.87;;
47429;SDS011;33181;49.246;7.372;2022-10-10T06:27:42;12.77;;;8.30;;
47429;SDS011;33181;49.246;7.372;2022-10-10T06:30:08;14.67;;;8.40;;
47429;SDS011;33181;49.246;7.372;2022-10-10T06:32:34;10.70;;;7.57;;
47429;SDS011;33181;49.246;7.372;2022-10-10T06:35:00;13.60;;;7.97;;
47429;SDS011;33181;49.246;7.372;2022-10-10T06:37:26;9.50;;;7.90;;
47429;SDS011;33181;49.246;7.372;2022-10-10T06:39:51;11.13;;;8.40;;
47429;SDS011;33181;49.246;7.372;2022-10-10T06:42:17;11.83;;;7.90;;
47429;SDS011;33181;49.246;7.372;2022-10-10T06:44:43;13.13;;;8.43;;
47429;SDS011;33181;49.246;7.372;2022-10-10T06:47:09;12.70;;;7.80;;
47429;SDS011;33181;49.246;7.372;2022-10-10T06:49:36;10.00;;;7.43;;
47429;SDS011;33181;49.246;7.372;2022-10-10T06:52:02;10.30;;;7.63;;
47429;SDS011;33181;49.246;7.372;2022-10-10T06:54:28;13.47;;;7.67;;
47429;SDS011;33181;49.246;7.372;2022-10-10T06:56:53;11.10;;;7.33;;
47429;SDS011;33181;49.246;7.372;2022-10-10T06:59:19;13.03;;;8.70;;
47429;SDS011;33181;49.246;7.372;2022-10-10T07:01:45;12.37;;;7.87;;
47429;SDS011;33181;49.246;7.372;2022-10-10T07:04:11;13.83;;;6.97;;
47429;SDS011;33181;49.246;7.372;2022-10-10T07:06:37;9.77;;;6.93;;
47429;SDS011;33181;49.246;7.372;2022-10-10T07:09:03;13.93;;;7.83;;
47429;SDS011;33181;49.246;7.372;2022-10-10T07:11:30;9.63;;;7.23;;
47429;SDS011;33181;49.246;7.372;2022-10-10T07:13:56;15.20;;;6.67;;
47429;SDS011;33181;49.246;7.372;2022-10-10T07:16:22;13.97;;;7.87;;
47429;SDS011;33181;49.246;7.372;2022-10-10T07:18:48;10.17;;;7.30;;
47429;SDS011;33181;49.246;7.372;2022-10-10T07:21:14;11.97;;;7.63;;
47429;SDS011;33181;49.246;7.372;2022-10-10T07:23:40;13.60;;;9.30;;
47429;SDS011;33181;49.246;7.372;2022-10-10T07:26:07;12.70;;;8.27;;
47429;SDS011;33181;49.246;7.372;2022-10-10T07:28:36;16.20;;;9.03;;
47429;SDS011;33181;49.246;7.372;2022-10-10T07:31:03;13.33;;;8.90;;
47429;SDS011;33181;49.246;7.372;2022-10-10T07:33:33;11.03;;;7.93;;
47429;SDS011;33181;49.246;7.372;2022-10-10T07:36:05;11.53;;;8.80;;
47429;SDS011;33181;49.246;7.372;2022-10-10T07:38:32;14.80;;;8.03;;
47429;SDS011;33181;49.246;7.372;2022-10-10T07:40:58;11.50;;;8.47;;
47429;SDS011;33181;49.246;7.372;2022-10-10T07:43:24;12.73;;;8.43;;
47429;SDS011;33181;49.246;7.372;2022-10-10T07:45:50;12.30;;;9.03;;
47429;SDS011;33181;49.246;7.372;2022-10-10T07:48:16;12.77;;;8.87;;
47429;SDS011;33181;49.246;7.372;2022-10-10T07:50:42;11.83;;;8.33;;
47429;SDS011;33181;49.246;7.372;2022-10-10T07:53:09;12.47;;;9.43;;
47429;SDS011;33181;49.246;7.372;2022-10-10T07:55:40;13.87;;;8.00;;
47429;SDS011;33181;49.246;7.372;2022-10-10T07:58:07;12.10;;;9.03;;
47429;SDS011;33181;49.246;7.372;2022-10-10T08:00:35;12.97;;;9.20;;
47429;SDS011;33181;49.246;7.372;2022-10-10T08:03:04;16.83;;;9.20;;
47429;SDS011;33181;49.246;7.372;2022-10-10T08:05:31;12.43;;;8.97;;
47429;SDS011;33181;49.246;7.372;2022-10-10T08:07:56;10.63;;;8.90;;
47429;SDS011;33181;49.246;7.372;2022-10-10T08:10:22;13.40;;;8.87;;
47429;SDS011;33181;49.246;7.372;2022-10-10T08:12:48;11.17;;;8.60;;
47429;SDS011;33181;49.246;7.372;2022-10-10T08:15:14;12.87;;;8.17;;
47429;SDS011;33181;49.246;7.372;2022-10-10T08:17:40;33.53;;;16.50;;
47429;SDS011;33181;49.246;7.372;2022-10-10T08:20:05;16.10;;;9.90;;
47429;SDS011;33181;49.246;7.372;2022-10-10T08:22:32;14.00;;;9.70;;
47429;SDS011;33181;49.246;7.372;2022-10-10T08:24:58;13.47;;;8.27;;
47429;SDS011;33181;49.246;7.372;2022-10-10T08:27:24;13.97;;;9.50;;
47429;SDS011;33181;49.246;7.372;2022-10-10T08:29:49;13.13;;;9.73;;
47429;SDS011;33181;49.246;7.372;2022-10-10T08:32:15;13.87;;;10.10;;
47429;SDS011;33181;49.246;7.372;2022-10-10T08:34:41;20.33;;;10.50;;
47429;SDS011;33181;49.246;7.372;2022-10-10T08:37:07;15.87;;;9.10;;
47429;SDS011;33181;49.246;7.372;2022-10-10T08:39:33;18.90;;;9.67;;
47429;SDS011;33181;49.246;7.372;2022-10-10T08:41:59;15.13;;;9.27;;
47429;SDS011;33181;49.246;7.372;2022-10-10T08:44:39;11.63;;;8.90;;
47429;SDS011;33181;49.246;7.372;2022-10-10T08:52:58;15.90;;;9.63;;
47429;SDS011;33181;49.246;7.372;2022-10-10T08:55:33;10.80;;;8.40;;
47429;SDS011;33181;49.246;7.372;2022-10-10T09:00:39;13.50;;;8.83;;
47429;SDS011;33181;49.246;7.372;2022-10-10T09:03:23;13.43;;;8.10;;
47429;SDS011;33181;49.246;7.372;2022-10-10T09:14:23;12.40;;;7.50;;
47429;SDS011;33181;49.246;7.372;2022-10-10T09:26:19;15.60;;;7.77;;
47429;SDS011;33181;49.246;7.372;2022-10-10T09:29:04;11.10;;;7.23;;
47429;SDS011;33181;49.246;7.372;2022-10-10T09:31:50;9.97;;;7.20;;
47429;SDS011;33181;49.246;7.372;2022-10-10T09:35:01;11.20;;;6.90;;
47429;SDS011;33181;49.246;7.372;2022-10-10T09:37:38;12.30;;;7.33;;
47429;SDS011;33181;49.246;7.372;2022-10-10T09:40:12;9.70;;;6.20;;
47429;SDS011;33181;49.246;7.372;2022-10-10T09:42:48;11.77;;;6.30;;
47429;SDS011;33181;49.246;7.372;2022-10-10T09:45:18;10.40;;;6.47;;
47429;SDS011;33181;49.246;7.372;2022-10-10T09:48:00;11.90;;;6.80;;
47429;SDS011;33181;49.246;7.372;2022-10-10T09:50:26;8.70;;;5.77;;
47429;SDS011;33181;49.246;7.372;2022-10-10T09:52:52;11.70;;;6.87;;
47429;SDS011;33181;49.246;7.372;2022-10-10T09:55:22;13.57;;;6.27;;
47429;SDS011;33181;49.246;7.372;2022-10-10T10:01:08;10.57;;;6.77;;
47429;SDS011;33181;49.246;7.372;2022-10-10T10:03:39;9.07;;;6.13;;
47429;SDS011;33181;49.246;7.372;2022-10-10T10:06:08;14.50;;;6.63;;
47429;SDS011;33181;49.246;7.372;2022-10-10T10:08:38;10.77;;;6.67;;
47429;SDS011;33181;49.246;7.372;2022-10-10T10:11:05;10.67;;;6.70;;
47429;SDS011;33181;49.246;7.372;2022-10-10T10:13:52;12.10;;;6.97;;
47429;SDS011;33181;49.246;7.372;2022-10-10T10:16:23;14.40;;;6.70;;
47429;SDS011;33181;49.246;7.372;2022-10-10T10:18:59;9.30;;;5.87;;
47429;SDS011;33181;49.246;7.372;2022-10-10T10:21:25;8.47;;;5.27;;
47429;SDS011;33181;49.246;7.372;2022-10-10T10:23:53;10.27;;;5.40;;
47429;SDS011;33181;49.246;7.372;2022-10-10T10:26:24;9.50;;;5.60;;
47429;SDS011;33181;49.246;7.372;2022-10-10T10:28:52;11.23;;;6.00;;
47429;SDS011;33181;49.246;7.372;2022-10-10T10:37:19;9.60;;;5.40;;
47429;SDS011;33181;49.246;7.372;2022-10-10T10:45:37;9.70;;;5.63;;
47429;SDS011;33181;49.246;7.372;2022-10-10T10:57:53;8.80;;;5.27;;
47429;SDS011;33181;49.246;7.372;2022-10-10T11:00:32;9.07;;;5.20;;
47429;SDS011;33181;49.246;7.372;2022-10-10T11:03:35;12.40;;;5.00;;
47429;SDS011;33181;49.246;7.372;2022-10-10T11:09:13;8.30;;;5.03;;
47429;SDS011;33181;49.246;7.372;2022-10-10T11:14:56;10.03;;;5.00;;
47429;SDS011;33181;49.246;7.372;2022-10-10T11:17:42;9.63;;;5.07;;
47429;SDS011;33181;49.246;7.372;2022-10-10T11:20:35;10.57;;;6.27;;
47429;SDS011;33181;49.246;7.372;2022-10-10T11:23:11;13.20;;;7.53;;
47429;SDS011;33181;49.246;7.372;2022-10-10T11:26:04;9.80;;;4.90;;
47429;SDS011;33181;49.246;7.372;2022-10-10T11:28:48;9.40;;;6.13;;
47429;SDS011;33181;49.246;7.372;2022-10-10T11:31:39;15.03;;;6.10;;
47429;SDS011;33181;49.246;7.372;2022-10-10T11:34:38;16.37;;;7.93;;
47429;SDS011;33181;49.246;7.372;2022-10-10T11:37:14;14.87;;;6.70;;
47429;SDS011;33181;49.246;7.372;2022-10-10T11:39:51;10.57;;;4.53;;
47429;SDS011;33181;49.246;7.372;2022-10-10T11:42:24;12.83;;;4.93;;
47429;SDS011;33181;49.246;7.372;2022-10-10T11:45:05;10.23;;;4.47;;
47429;SDS011;33181;49.246;7.372;2022-10-10T11:47:41;10.80;;;4.83;;
47429;SDS011;33181;49.246;7.372;2022-10-10T11:50:28;10.70;;;4.80;;
47429;SDS011;33181;49.246;7.372;2022-10-10T11:55:49;13.80;;;4.97;;
47429;SDS011;33181;49.246;7.372;2022-10-10T11:58:45;12.63;;;5.30;;
47429;SDS011;33181;49.246;7.372;2022-10-10T12:01:28;13.17;;;5.30;;
47429;SDS011;33181;49.246;7.372;2022-10-10T12:04:00;9.67;;;4.67;;
47429;SDS011;33181;49.246;7.372;2022-10-10T12:06:32;9.87;;;4.60;;
47429;SDS011;33181;49.246;7.372;2022-10-10T12:09:10;10.77;;;5.73;;
47429;SDS011;33181;49.246;7.372;2022-10-10T12:11:55;10.50;;;4.80;;
47429;SDS011;33181;49.246;7.372;2022-10-10T12:14:46;12.13;;;5.23;;
47429;SDS011;33181;49.246;7.372;2022-10-10T12:17:19;11.67;;;4.83;;
47429;SDS011;33181;49.246;7.372;2022-10-10T12:22:44;10.30;;;4.60;;
47429;SDS011;33181;49.246;7.372;2022-10-10T12:33:19;13.73;;;5.40;;
47429;SDS011;33181;49.246;7.372;2022-10-10T12:35:47;14.03;;;4.80;;
47429;SDS011;33181;49.246;7.372;2022-10-10T12:38:14;20.33;;;4.40;;
47429;SDS011;33181;49.246;7.372;2022-10-10T12:43:49;11.77;;;4.40;;
47429;SDS011;33181;49.246;7.372;2022-10-10T12:46:29;11.63;;;4.73;;
47429;SDS011;33181;49.246;7.372;2022-10-10T12:51:58;10.87;;;4.53;;
47429;SDS011;33181;49.246;7.372;2022-10-10T12:54:37;16.93;;;4.20;;
47429;SDS011;33181;49.246;7.372;2022-10-10T12:59:52;9.57;;;4.30;;
47429;SDS011;33181;49.246;7.372;2022-10-10T13:02:25;14.27;;;4.70;;
47429;SDS011;33181;49.246;7.372;2022-10-10T13:04:53;11.97;;;4.03;;
47429;SDS011;33181;49.246;7.372;2022-10-10T13:07:23;16.23;;;4.30;;
47429;SDS011;33181;49.246;7.372;2022-10-10T13:09:50;13.03;;;4.40;;
47429;SDS011;33181;49.246;7.372;2022-10-10T13:14:56;14.43;;;5.10;;
47429;SDS011;33181;49.246;7.372;2022-10-10T13:17:29;10.63;;;4.10;;
47429;SDS011;33181;49.246;7.372;2022-10-10T13:20:02;12.93;;;4.50;;
47429;SDS011;33181;49.246;7.372;2022-10-10T13:22:30;8.37;;;4.60;;
47429;SDS011;33181;49.246;7.372;2022-10-10T13:24:57;12.23;;;4.67;;
47429;SDS011;33181;49.246;7.372;2022-10-10T13:27:25;9.33;;;4.50;;
47429;SDS011;33181;49.246;7.372;2022-10-10T13:29:55;10.10;;;4.77;;
47429;SDS011;33181;49.246;7.372;2022-10-10T13:32:23;12.47;;;4.57;;
47429;SDS011;33181;49.246;7.372;2022-10-10T13:35:00;12.60;;;4.63;;
47429;SDS011;33181;49.246;7.372;2022-10-10T13:37:37;11.60;;;5.20;;
47429;SDS011;33181;49.246;7.372;2022-10-10T13:40:05;18.10;;;5.33;;
47429;SDS011;33181;49.246;7.372;2022-10-10T13:42:41;15.77;;;4.80;;
47429;SDS011;33181;49.246;7.372;2022-10-10T13:45:26;11.30;;;4.33;;
47429;SDS011;33181;49.246;7.372;2022-10-10T13:53:51;12.07;;;4.67;;
47429;SDS011;33181;49.246;7.372;2022-10-10T13:58:48;13.33;;;4.90;;
47429;SDS011;33181;49.246;7.372;2022-10-10T14:06:39;11.47;;;4.37;;
47429;SDS011;33181;49.246;7.372;2022-10-10T14:09:13;9.57;;;5.23;;
47429;SDS011;33181;49.246;7.372;2022-10-10T14:11:49;9.07;;;4.60;;
47429;SDS011;33181;49.246;7.372;2022-10-10T14:14:31;11.40;;;4.77;;
47429;SDS011;33181;49.246;7.372;2022-10-10T14:17:04;13.90;;;4.80;;
47429;SDS011;33181;49.246;7.372;2022-10-10T14:19:30;12.97;;;5.30;;
47429;SDS011;33181;49.246;7.372;2022-10-10T14:21:58;10.30;;;5.00;;
47429;SDS011;33181;49.246;7.372;2022-10-10T14:24:24;10.47;;;5.30;;
47429;SDS011;33181;49.246;7.372;2022-10-10T14:26:50;9.50;;;4.80;;
47429;SDS011;33181;49.246;7.372;2022-10-10T14:29:17;17.23;;;5.20;;
47429;SDS011;33181;49.246;7.372;2022-10-10T14:31:44;11.40;;;5.37;;
47429;SDS011;33181;49.246;7.372;2022-10-10T14:34:11;16.00;;;5.60;;
47429;SDS011;33181;49.246;7.372;2022-10-10T14:36:39;18.03;;;5.40;;
47429;SDS011;33181;49.246;7.372;2022-10-10T14:39:14;10.20;;;4.80;;
47429;SDS011;33181;49.246;7.372;2022-10-10T14:41:42;10.87;;;5.33;;
47429;SDS011;33181;49.246;7.372;2022-10-10T14:44:08;12.20;;;5.10;;
47429;SDS011;33181;49.246;7.372;2022-10-10T14:46:35;11.57;;;5.50;;
47429;SDS011;33181;49.246;7.372;2022-10-10T14:49:01;13.67;;;5.53;;
47429;SDS011;33181;49.246;7.372;2022-10-10T14:51:27;12.53;;;5.07;;
47429;SDS011;33181;49.246;7.372;2022-10-10T14:53:53;9.00;;;5.40;;
47429;SDS011;33181;49.246;7.372;2022-10-10T14:56:19;11.90;;;5.07;;
47429;SDS011;33181;49.246;7.372;2022-10-10T14:58:45;13.47;;;5.20;;
47429;SDS011;33181;49.246;7.372;2022-10-10T15:01:11;13.43;;;5.40;;
47429;SDS011;33181;49.246;7.372;2022-10-10T15:03:36;12.60;;;5.30;;
47429;SDS011;33181;49.246;7.372;2022-10-10T15:06:02;13.27;;;5.37;;
47429;SDS011;33181;49.246;7.372;2022-10-10T15:08:28;12.90;;;5.10;;
47429;SDS011;33181;49.246;7.372;2022-10-10T15:10:54;10.00;;;5.50;;
47429;SDS011;33181;49.246;7.372;2022-10-10T15:13:21;20.70;;;6.03;;
47429;SDS011;33181;49.246;7.372;2022-10-10T15:15:47;15.00;;;5.67;;
47429;SDS011;33181;49.246;7.372;2022-10-10T15:18:12;13.70;;;5.63;;
47429;SDS011;33181;49.246;7.372;2022-10-10T15:20:39;15.77;;;5.37;;
47429;SDS011;33181;49.246;7.372;2022-10-10T15:23:06;8.97;;;5.20;;
47429;SDS011;33181;49.246;7.372;2022-10-10T15:25:33;10.50;;;5.20;;
47429;SDS011;33181;49.246;7.372;2022-10-10T15:27:58;12.60;;;5.60;;
47429;SDS011;33181;49.246;7.372;2022-10-10T15:30:26;13.67;;;5.50;;
47429;SDS011;33181;49.246;7.372;2022-10-10T15:32:52;9.57;;;5.13;;
47429;SDS011;33181;49.246;7.372;2022-10-10T15:35:19;12.23;;;5.83;;
47429;SDS011;33181;49.246;7.372;2022-10-10T15:37:47;10.87;;;5.83;;
47429;SDS011;33181;49.246;7.372;2022-10-10T15:40:15;10.87;;;6.13;;
47429;SDS011;33181;49.246;7.372;2022-10-10T15:42:44;10.07;;;5.90;;
47429;SDS011;33181;49.246;7.372;2022-10-10T15:45:11;19.63;;;6.40;;
47429;SDS011;33181;49.246;7.372;2022-10-10T15:47:37;12.73;;;6.17;;
47429;SDS011;33181;49.246;7.372;2022-10-10T15:50:05;9.00;;;5.50;;
47429;SDS011;33181;49.246;7.372;2022-10-10T15:52:33;13.47;;;6.00;;
47429;SDS011;33181;49.246;7.372;2022-10-10T15:54:59;15.23;;;6.63;;
47429;SDS011;33181;49.246;7.372;2022-10-10T15:57:25;12.17;;;6.27;;
47429;SDS011;33181;49.246;7.372;2022-10-10T15:59:51;17.07;;;6.27;;
47429;SDS011;33181;49.246;7.372;2022-10-10T16:02:17;11.60;;;6.00;;
47429;SDS011;33181;49.246;7.372;2022-10-10T16:04:43;11.23;;;6.60;;
47429;SDS011;33181;49.246;7.372;2022-10-10T16:07:09;15.37;;;6.40;;
47429;SDS011;33181;49.246;7.372;2022-10-10T16:09:35;9.90;;;6.20;;
47429;SDS011;33181;49.246;7.372;2022-10-10T16:12:01;15.53;;;6.47;;
47429;SDS011;33181;49.246;7.372;2022-10-10T16:14:27;15.40;;;7.13;;
47429;SDS011;33181;49.246;7.372;2022-10-10T16:16:53;16.10;;;7.80;;
47429;SDS011;33181;49.246;7.372;2022-10-10T16:19:19;13.03;;;6.70;;
47429;SDS011;33181;49.246;7.372;2022-10-10T16:21:45;17.60;;;7.60;;
47429;SDS011;33181;49.246;7.372;2022-10-10T16:24:11;18.10;;;9.97;;
47429;SDS011;33181;49.246;7.372;2022-10-10T16:26:37;17.53;;;8.50;;
47429;SDS011;33181;49.246;7.372;2022-10-10T16:29:06;13.37;;;7.43;;
47429;SDS011;33181;49.246;7.372;2022-10-10T16:31:33;9.20;;;6.53;;
47429;SDS011;33181;49.246;7.372;2022-10-10T16:34:02;14.70;;;8.57;;
47429;SDS011;33181;49.246;7.372;2022-10-10T16:36:30;12.77;;;8.07;;
47429;SDS011;33181;49.246;7.372;2022-10-10T16:38:58;14.53;;;8.40;;
47429;SDS011;33181;49.246;7.372;2022-10-10T16:41:25;9.03;;;7.40;;
47429;SDS011;33181;49.246;7.372;2022-10-10T16:43:53;11.00;;;7.30;;
47429;SDS011;33181;49.246;7.372;2022-10-10T16:46:20;13.73;;;8.00;;
47429;SDS011;33181;49.246;7.372;2022-10-10T16:48:50;13.07;;;7.70;;
47429;SDS011;33181;49.246;7.372;2022-10-10T16:51:18;15.70;;;8.40;;
47429;SDS011;33181;49.246;7.372;2022-10-10T16:53:45;11.73;;;7.27;;
47429;SDS011;33181;49.246;7.372;2022-10-10T16:56:13;11.27;;;8.03;;
47429;SDS011;33181;49.246;7.372;2022-10-10T16:58:41;15.33;;;8.13;;